Time;durP1;ratioP1;P1;durP2;ratioP2;P2;SDS_P1;SDS_P2;PMS_P1;PMS_P2;Temp;Humidity;BMP_temperature;BMP_pressure;BME280_temperature;BME280_humidity;BME280_pressure;Samples;Min_cycle;Max_cycle;Signal;HPM_P1;HPM_P2
2022/03/30 00:01:11;;;;;;;83.17;50.67;;;;;;;;;;5004552;28;20624;-35
2022/03/30 00:03:38;;;;;;;77.13;50.70;;;;;;;;;;5005910;28;20617;-36
2022/03/30 00:06:04;;;;;;;82.03;50.13;;;;;;;;;;5005506;28;20798;-36
2022/03/30 00:08:31;;;;;;;79.50;51.47;;;;;;;;;;5006877;28;20176;-36
2022/03/30 00:10:57;;;;;;;75.30;50.37;;;;;;;;;;5005734;28;20521;-36
2022/03/30 00:13:23;;;;;;;79.50;50.80;;;;;;;;;;5006655;28;20612;-36
2022/03/30 00:15:50;;;;;;;80.27;52.07;;;;;;;;;;5010045;28;20715;-35
2022/03/30 00:18:16;;;;;;;80.90;53.33;;;;;;;;;;5007240;28;20207;-36
2022/03/30 00:20:42;;;;;;;82.83;53.30;;;;;;;;;;5003262;28;20180;-36
2022/03/30 00:23:08;;;;;;;79.17;50.67;;;;;;;;;;5004910;28;20393;-36
2022/03/30 00:25:35;;;;;;;83.63;53.33;;;;;;;;;;5008263;28;20678;-36
2022/03/30 00:28:02;;;;;;;80.57;50.93;;;;;;;;;;5007213;28;20405;-36
2022/03/30 00:30:28;;;;;;;79.53;51.33;;;;;;;;;;5008090;28;20628;-36
2022/03/30 00:32:54;;;;;;;81.73;51.47;;;;;;;;;;5007335;28;20203;-36
2022/03/30 00:35:21;;;;;;;84.33;52.63;;;;;;;;;;5004699;28;20176;-36
2022/03/30 00:37:47;;;;;;;74.20;50.57;;;;;;;;;;5006244;28;20183;-36
2022/03/30 00:40:14;;;;;;;80.73;52.53;;;;;;;;;;5006734;28;20176;-36
2022/03/30 00:42:40;;;;;;;75.93;52.33;;;;;;;;;;5003773;28;20601;-35
2022/03/30 00:45:10;;;;;;;76.30;52.33;;;;;;;;;;5008958;28;20607;-36
2022/03/30 00:47:37;;;;;;;72.83;49.73;;;;;;;;;;5008263;28;20180;-36
2022/03/30 00:50:03;;;;;;;74.47;50.03;;;;;;;;;;5004568;28;20341;-36
2022/03/30 00:52:29;;;;;;;84.20;51.50;;;;;;;;;;5004482;28;20455;-36
2022/03/30 00:54:57;;;;;;;80.30;52.00;;;;;;;;;;5007167;28;21001;-36
2022/03/30 00:57:23;;;;;;;75.23;50.33;;;;;;;;;;5005526;28;20191;-36
2022/03/30 00:59:50;;;;;;;77.63;51.03;;;;;;;;;;5006096;28;20483;-36
2022/03/30 01:02:16;;;;;;;80.73;52.07;;;;;;;;;;5007039;28;20184;-36
2022/03/30 01:04:45;;;;;;;81.63;52.23;;;;;;;;;;5008308;28;20180;-36
2022/03/30 01:07:11;;;;;;;88.40;54.63;;;;;;;;;;5004340;28;20168;-36
2022/03/30 01:09:37;;;;;;;80.90;54.27;;;;;;;;;;5004110;28;20269;-36
2022/03/30 01:12:04;;;;;;;80.53;51.50;;;;;;;;;;5005799;28;20199;-36
2022/03/30 01:14:31;;;;;;;79.20;54.43;;;;;;;;;;5008242;28;20172;-36
2022/03/30 01:16:58;;;;;;;88.33;55.97;;;;;;;;;;5007046;28;20180;-36
2022/03/30 01:19:28;;;;;;;77.07;52.23;;;;;;;;;;4999893;28;20622;-36
2022/03/30 01:21:55;;;;;;;84.80;54.60;;;;;;;;;;5004335;28;20349;-36
2022/03/30 01:24:21;;;;;;;84.93;56.53;;;;;;;;;;5008544;28;20691;-36
2022/03/30 01:26:47;;;;;;;86.67;56.77;;;;;;;;;;5006188;28;20172;-36
2022/03/30 01:34:43;;;;;;;86.93;55.50;;;;;;;;;;5006116;28;20334;-37
2022/03/30 01:37:10;;;;;;;83.97;54.70;;;;;;;;;;5005707;28;20172;-37
2022/03/30 01:39:37;;;;;;;84.73;53.40;;;;;;;;;;5008286;28;20173;-36
2022/03/30 01:42:03;;;;;;;85.60;55.63;;;;;;;;;;5005490;28;20174;-36
2022/03/30 01:44:29;;;;;;;86.80;55.93;;;;;;;;;;5006994;28;21087;-36
2022/03/30 01:46:55;;;;;;;80.53;55.17;;;;;;;;;;5005592;28;20732;-36
2022/03/30 01:49:21;;;;;;;80.80;52.53;;;;;;;;;;5004357;28;20633;-36
2022/03/30 01:51:49;;;;;;;80.03;52.87;;;;;;;;;;5006270;28;20250;-36
2022/03/30 01:54:16;;;;;;;80.07;53.43;;;;;;;;;;5007213;28;20172;-36
2022/03/30 01:56:42;;;;;;;86.30;57.10;;;;;;;;;;5007140;28;20176;-36
2022/03/30 01:59:09;;;;;;;86.10;55.93;;;;;;;;;;5004696;28;20180;-36
2022/03/30 02:01:35;;;;;;;83.67;54.57;;;;;;;;;;5001777;28;20457;-36
2022/03/30 02:04:01;;;;;;;88.03;54.57;;;;;;;;;;5004715;28;20382;-36
2022/03/30 02:06:27;;;;;;;82.53;54.03;;;;;;;;;;5006565;28;22037;-36
2022/03/30 02:08:53;;;;;;;80.43;51.63;;;;;;;;;;5003468;28;20441;-36
2022/03/30 02:11:19;;;;;;;77.70;51.43;;;;;;;;;;5002410;28;20666;-36
2022/03/30 02:13:45;;;;;;;80.63;52.97;;;;;;;;;;5004193;28;20408;-36
2022/03/30 02:16:11;;;;;;;77.47;51.10;;;;;;;;;;5007563;28;20171;-36
2022/03/30 02:18:38;;;;;;;75.00;49.50;;;;;;;;;;5005948;28;20581;-36
2022/03/30 02:21:04;;;;;;;82.53;50.77;;;;;;;;;;5002222;28;20389;-36
2022/03/30 02:23:31;;;;;;;69.47;47.47;;;;;;;;;;5004423;28;20171;-36
2022/03/30 02:25:57;;;;;;;73.63;49.43;;;;;;;;;;5004962;28;20273;-36
2022/03/30 02:28:23;;;;;;;70.57;50.03;;;;;;;;;;5004373;28;20176;-36
2022/03/30 02:30:49;;;;;;;73.23;49.80;;;;;;;;;;5002737;28;20288;-36
2022/03/30 02:33:15;;;;;;;70.67;48.80;;;;;;;;;;5006016;28;20194;-36
2022/03/30 02:35:41;;;;;;;76.73;50.77;;;;;;;;;;5006744;28;20230;-36
2022/03/30 02:38:07;;;;;;;81.37;52.87;;;;;;;;;;5007469;28;20328;-36
2022/03/30 02:40:33;;;;;;;82.57;52.07;;;;;;;;;;5009250;28;20625;-37
2022/03/30 02:42:59;;;;;;;84.47;56.67;;;;;;;;;;5007122;28;20173;-36
2022/03/30 02:45:26;;;;;;;90.17;56.93;;;;;;;;;;5006680;28;20179;-36
2022/03/30 02:50:36;;;;;;;91.53;57.43;;;;;;;;;;5011042;28;20379;-36
2022/03/30 02:53:03;;;;;;;92.80;59.17;;;;;;;;;;5008801;28;20175;-36
2022/03/30 02:55:29;;;;;;;96.80;58.43;;;;;;;;;;5008360;28;20489;-36
2022/03/30 02:57:55;;;;;;;96.40;59.10;;;;;;;;;;5004592;28;20176;-36
2022/03/30 03:00:21;;;;;;;96.93;59.87;;;;;;;;;;5009379;28;20790;-36
2022/03/30 03:02:48;;;;;;;97.03;60.73;;;;;;;;;;5005597;28;20191;-36
2022/03/30 03:05:14;;;;;;;96.70;57.87;;;;;;;;;;5007350;28;20616;-36
2022/03/30 03:07:41;;;;;;;90.47;55.37;;;;;;;;;;5007516;28;20364;-36
2022/03/30 03:10:09;;;;;;;80.90;52.20;;;;;;;;;;5009423;28;21207;-36
2022/03/30 03:12:35;;;;;;;86.07;54.23;;;;;;;;;;5007342;28;20165;-36
2022/03/30 03:15:01;;;;;;;82.07;52.67;;;;;;;;;;5007187;28;20164;-36
2022/03/30 03:17:27;;;;;;;84.13;52.87;;;;;;;;;;5007996;28;20249;-36
2022/03/30 03:19:53;;;;;;;88.70;55.10;;;;;;;;;;5007726;28;20717;-36
2022/03/30 03:22:20;;;;;;;92.60;56.73;;;;;;;;;;5007502;28;20665;-36
2022/03/30 03:24:46;;;;;;;96.47;57.53;;;;;;;;;;5006518;28;20670;-36
2022/03/30 03:27:12;;;;;;;108.17;61.93;;;;;;;;;;5003786;28;20602;-36
2022/03/30 03:29:39;;;;;;;104.47;59.77;;;;;;;;;;5009299;28;20192;-36
2022/03/30 03:32:05;;;;;;;105.43;61.07;;;;;;;;;;5003005;28;20387;-36
2022/03/30 03:34:31;;;;;;;108.67;62.87;;;;;;;;;;5007896;28;20192;-36
2022/03/30 03:36:57;;;;;;;125.67;67.77;;;;;;;;;;5007397;28;21331;-36
2022/03/30 03:39:23;;;;;;;105.90;59.43;;;;;;;;;;5007066;28;20578;-36
2022/03/30 03:41:49;;;;;;;101.63;58.47;;;;;;;;;;5005748;28;20168;-36
2022/03/30 03:44:15;;;;;;;108.30;61.13;;;;;;;;;;5006392;28;20183;-36
2022/03/30 03:46:42;;;;;;;119.87;65.53;;;;;;;;;;5008413;28;20770;-36
2022/03/30 03:49:08;;;;;;;131.17;69.40;;;;;;;;;;4997085;28;20609;-36
2022/03/30 03:51:34;;;;;;;140.30;73.13;;;;;;;;;;5006195;28;20209;-36
2022/03/30 03:54:00;;;;;;;136.50;72.80;;;;;;;;;;5007459;28;20183;-36
2022/03/30 03:56:27;;;;;;;146.73;73.90;;;;;;;;;;5008643;28;20433;-36
2022/03/30 03:58:54;;;;;;;147.67;77.13;;;;;;;;;;5006992;28;20168;-37
2022/03/30 04:01:20;;;;;;;126.50;67.10;;;;;;;;;;5005975;28;20623;-36
2022/03/30 04:03:46;;;;;;;130.57;71.00;;;;;;;;;;5006491;28;20279;-36
2022/03/30 04:06:12;;;;;;;120.47;67.00;;;;;;;;;;5007858;28;20184;-36
2022/03/30 04:08:38;;;;;;;146.97;76.47;;;;;;;;;;5007991;28;20453;-36
2022/03/30 04:11:05;;;;;;;144.37;76.53;;;;;;;;;;5006909;28;20191;-36
2022/03/30 04:13:31;;;;;;;154.17;79.47;;;;;;;;;;5006758;28;20552;-36
2022/03/30 04:15:58;;;;;;;166.10;81.73;;;;;;;;;;5008551;28;20176;-37
2022/03/30 04:18:24;;;;;;;175.53;86.60;;;;;;;;;;5006602;28;20509;-36
2022/03/30 04:20:50;;;;;;;195.20;93.23;;;;;;;;;;5003787;28;20188;-37
2022/03/30 04:23:16;;;;;;;194.33;94.00;;;;;;;;;;5005738;28;20265;-36
2022/03/30 04:25:42;;;;;;;164.50;83.03;;;;;;;;;;5005659;28;20183;-36
2022/03/30 04:28:08;;;;;;;161.13;81.87;;;;;;;;;;5003389;28;20191;-36
2022/03/30 04:30:34;;;;;;;173.17;86.67;;;;;;;;;;5006412;28;20196;-36
2022/03/30 04:33:00;;;;;;;166.80;85.60;;;;;;;;;;5008626;28;20177;-37
2022/03/30 04:35:27;;;;;;;173.93;89.20;;;;;;;;;;5009437;28;20271;-37
2022/03/30 04:37:54;;;;;;;161.67;85.07;;;;;;;;;;5003911;28;20613;-36
2022/03/30 04:40:22;;;;;;;144.97;76.03;;;;;;;;;;5006408;28;20172;-36
2022/03/30 04:42:48;;;;;;;156.73;80.50;;;;;;;;;;5005946;28;20395;-36
2022/03/30 04:45:14;;;;;;;164.33;83.67;;;;;;;;;;5005795;28;20208;-36
2022/03/30 04:47:40;;;;;;;174.20;87.67;;;;;;;;;;5007493;28;20568;-36
2022/03/30 04:50:06;;;;;;;167.60;84.23;;;;;;;;;;5006838;28;20518;-36
2022/03/30 04:52:32;;;;;;;161.97;84.23;;;;;;;;;;5005692;28;20176;-36
2022/03/30 04:54:59;;;;;;;179.27;89.57;;;;;;;;;;5000951;28;20292;-36
2022/03/30 04:57:25;;;;;;;161.83;85.57;;;;;;;;;;5005236;28;20199;-36
2022/03/30 04:59:51;;;;;;;154.70;83.07;;;;;;;;;;4989375;28;20172;-36
2022/03/30 05:02:17;;;;;;;177.67;86.97;;;;;;;;;;5005808;28;20188;-36
2022/03/30 05:04:43;;;;;;;170.50;87.00;;;;;;;;;;5005401;28;20218;-36
2022/03/30 05:07:09;;;;;;;150.63;79.00;;;;;;;;;;5006438;28;20187;-36
2022/03/30 05:09:35;;;;;;;161.53;85.47;;;;;;;;;;5004150;28;20623;-36
2022/03/30 05:12:02;;;;;;;183.90;89.53;;;;;;;;;;5006039;28;20762;-36
2022/03/30 05:14:28;;;;;;;169.97;89.20;;;;;;;;;;5008112;28;20180;-36
2022/03/30 05:16:54;;;;;;;150.77;81.50;;;;;;;;;;5003638;28;20484;-36
2022/03/30 05:19:21;;;;;;;170.97;86.23;;;;;;;;;;4979605;28;20824;-36
2022/03/30 05:21:47;;;;;;;145.57;77.77;;;;;;;;;;5006769;28;20180;-36
2022/03/30 05:24:13;;;;;;;171.23;89.43;;;;;;;;;;5006894;28;21492;-37
2022/03/30 05:26:39;;;;;;;186.03;93.03;;;;;;;;;;5006423;28;20183;-37
2022/03/30 05:29:05;;;;;;;180.13;92.30;;;;;;;;;;5004507;28;20191;-36
2022/03/30 05:31:31;;;;;;;175.77;90.07;;;;;;;;;;5003099;28;20562;-36
2022/03/30 05:33:57;;;;;;;186.43;95.80;;;;;;;;;;5003909;28;20747;-36
2022/03/30 05:36:23;;;;;;;186.83;94.40;;;;;;;;;;5001342;28;22055;-36
2022/03/30 05:38:50;;;;;;;187.60;96.23;;;;;;;;;;5010029;28;20249;-37
2022/03/30 05:41:17;;;;;;;169.03;88.47;;;;;;;;;;5008423;28;20172;-36
2022/03/30 05:43:43;;;;;;;173.13;92.43;;;;;;;;;;5005036;28;20690;-36
2022/03/30 05:46:09;;;;;;;189.70;94.83;;;;;;;;;;5002853;28;20458;-36
2022/03/30 05:48:36;;;;;;;186.63;95.30;;;;;;;;;;5002032;28;20739;-37
2022/03/30 05:51:02;;;;;;;179.47;93.43;;;;;;;;;;5001892;28;20188;-36
2022/03/30 05:53:28;;;;;;;192.43;96.23;;;;;;;;;;5004658;28;20734;-36
2022/03/30 05:55:57;;;;;;;179.43;94.20;;;;;;;;;;5006639;28;20171;-36
2022/03/30 05:58:24;;;;;;;189.77;96.57;;;;;;;;;;5004696;28;20168;-36
2022/03/30 06:00:53;;;;;;;179.67;93.20;;;;;;;;;;5004169;28;20176;-37
2022/03/30 06:03:19;;;;;;;158.20;86.97;;;;;;;;;;5004764;28;20576;-36
2022/03/30 06:05:45;;;;;;;168.57;90.27;;;;;;;;;;5020361;28;20639;-38
2022/03/30 06:08:11;;;;;;;164.93;87.13;;;;;;;;;;5028096;28;20263;-38
2022/03/30 06:10:37;;;;;;;155.77;87.80;;;;;;;;;;5006791;28;20668;-35
2022/03/30 06:13:04;;;;;;;144.90;83.40;;;;;;;;;;5008283;28;20439;-36
2022/03/30 06:15:30;;;;;;;156.83;86.83;;;;;;;;;;4986122;28;20220;-36
2022/03/30 06:17:56;;;;;;;163.47;89.77;;;;;;;;;;5011832;28;20410;-35
2022/03/30 06:20:24;;;;;;;157.07;86.10;;;;;;;;;;5006077;28;20168;-35
2022/03/30 06:22:51;;;;;;;149.23;85.57;;;;;;;;;;5009187;28;20218;-35
2022/03/30 06:25:18;;;;;;;158.93;88.73;;;;;;;;;;5013947;28;20171;-35
2022/03/30 06:27:44;;;;;;;159.17;85.30;;;;;;;;;;5007959;28;20192;-36
2022/03/30 06:30:11;;;;;;;175.57;91.67;;;;;;;;;;5007177;28;20188;-36
2022/03/30 06:32:37;;;;;;;173.50;91.17;;;;;;;;;;5010829;28;20785;-36
2022/03/30 06:35:04;;;;;;;180.23;91.50;;;;;;;;;;5008132;28;20164;-35
2022/03/30 06:37:30;;;;;;;167.47;89.67;;;;;;;;;;5007123;28;20504;-36
2022/03/30 06:39:56;;;;;;;171.07;89.30;;;;;;;;;;5008091;28;20259;-36
2022/03/30 06:42:22;;;;;;;160.83;85.63;;;;;;;;;;5010132;28;20173;-35
2022/03/30 06:44:48;;;;;;;171.37;88.60;;;;;;;;;;5008451;28;20283;-36
2022/03/30 06:47:15;;;;;;;161.90;86.47;;;;;;;;;;5003004;28;20668;-35
2022/03/30 06:49:41;;;;;;;171.80;89.83;;;;;;;;;;5006631;28;20359;-38
2022/03/30 06:52:08;;;;;;;176.93;89.13;;;;;;;;;;5008512;28;20524;-35
2022/03/30 06:54:35;;;;;;;170.73;88.07;;;;;;;;;;5004704;28;20734;-35
2022/03/30 06:57:02;;;;;;;179.87;90.00;;;;;;;;;;5004535;28;20222;-36
2022/03/30 06:59:28;;;;;;;141.40;80.40;;;;;;;;;;5009422;28;20168;-37
2022/03/30 07:01:55;;;;;;;148.00;81.57;;;;;;;;;;5011898;28;20906;-37
2022/03/30 07:04:22;;;;;;;137.73;78.03;;;;;;;;;;5002302;28;20707;-37
2022/03/30 07:12:18;;;;;;;157.47;86.73;;;;;;;;;;5010723;28;20493;-37
2022/03/30 07:14:46;;;;;;;158.53;88.43;;;;;;;;;;5003315;28;20435;-37
2022/03/30 07:17:12;;;;;;;163.90;90.77;;;;;;;;;;5002576;28;20352;-37
2022/03/30 07:19:40;;;;;;;151.27;88.40;;;;;;;;;;5009852;28;20541;-37
2022/03/30 07:22:06;;;;;;;168.17;90.70;;;;;;;;;;5005237;28;20594;-37
2022/03/30 07:24:32;;;;;;;159.97;87.17;;;;;;;;;;4984337;28;20187;-37
2022/03/30 07:26:58;;;;;;;153.23;88.43;;;;;;;;;;5007582;28;20766;-37
2022/03/30 07:29:24;;;;;;;142.87;80.23;;;;;;;;;;5007931;28;20664;-37
2022/03/30 07:31:50;;;;;;;139.03;83.47;;;;;;;;;;5005873;28;20196;-37
2022/03/30 07:34:17;;;;;;;158.53;86.73;;;;;;;;;;5003689;28;20179;-37
2022/03/30 07:36:43;;;;;;;148.50;85.70;;;;;;;;;;5004636;28;20175;-37
2022/03/30 07:39:10;;;;;;;170.10;94.17;;;;;;;;;;5007134;28;20204;-37
2022/03/30 07:41:36;;;;;;;161.40;87.37;;;;;;;;;;5009055;28;20678;-37
2022/03/30 07:44:02;;;;;;;154.47;87.27;;;;;;;;;;5004762;28;20172;-37
2022/03/30 07:46:29;;;;;;;153.20;87.70;;;;;;;;;;5002628;28;20279;-37
2022/03/30 07:48:55;;;;;;;160.87;88.00;;;;;;;;;;5004626;28;20752;-37
2022/03/30 07:51:21;;;;;;;150.17;84.70;;;;;;;;;;5001316;28;20180;-37
2022/03/30 07:53:47;;;;;;;139.67;78.63;;;;;;;;;;5006028;28;20164;-37
2022/03/30 07:56:13;;;;;;;145.63;82.20;;;;;;;;;;5005790;28;20211;-37
2022/03/30 07:58:39;;;;;;;136.93;76.50;;;;;;;;;;5007916;28;20203;-37
2022/03/30 08:01:05;;;;;;;129.80;72.37;;;;;;;;;;5004463;28;20391;-37
2022/03/30 08:03:31;;;;;;;120.73;68.80;;;;;;;;;;5001222;28;20206;-37
2022/03/30 08:05:58;;;;;;;115.07;64.73;;;;;;;;;;5005811;28;20389;-37
2022/03/30 08:08:24;;;;;;;134.40;70.97;;;;;;;;;;5007726;28;20234;-37
2022/03/30 08:10:50;;;;;;;123.50;68.77;;;;;;;;;;5009382;28;20196;-37
2022/03/30 08:13:16;;;;;;;116.17;65.93;;;;;;;;;;5003431;28;20250;-37
2022/03/30 08:15:43;;;;;;;122.43;67.83;;;;;;;;;;5006172;28;20975;-37
2022/03/30 08:18:09;;;;;;;125.90;67.80;;;;;;;;;;5008651;28;20168;-37
2022/03/30 08:23:20;;;;;;;135.00;73.37;;;;;;;;;;5006343;28;20195;-37
2022/03/30 08:25:46;;;;;;;121.40;66.20;;;;;;;;;;5002859;28;20654;-37
2022/03/30 08:28:12;;;;;;;133.63;72.10;;;;;;;;;;5005484;28;20184;-37
2022/03/30 08:30:38;;;;;;;142.20;75.60;;;;;;;;;;5006645;28;20200;-37
2022/03/30 08:33:04;;;;;;;141.10;73.43;;;;;;;;;;5003382;28;20247;-37
2022/03/30 08:35:31;;;;;;;144.90;73.83;;;;;;;;;;5005224;28;20168;-37
2022/03/30 08:37:57;;;;;;;147.27;75.60;;;;;;;;;;5006998;28;20648;-37
2022/03/30 08:40:24;;;;;;;149.63;77.23;;;;;;;;;;5006270;28;20555;-37
2022/03/30 08:42:50;;;;;;;139.73;74.33;;;;;;;;;;5002267;28;20176;-37
2022/03/30 08:45:16;;;;;;;143.97;74.10;;;;;;;;;;5004519;28;20287;-37
2022/03/30 08:47:42;;;;;;;148.37;75.87;;;;;;;;;;5007125;28;20304;-37
2022/03/30 08:50:09;;;;;;;141.07;77.83;;;;;;;;;;5005008;28;20459;-37
2022/03/30 08:52:35;;;;;;;127.27;69.73;;;;;;;;;;5001571;28;20450;-37
2022/03/30 08:55:01;;;;;;;122.63;65.23;;;;;;;;;;5008057;28;20176;-37
2022/03/30 08:57:27;;;;;;;122.73;67.10;;;;;;;;;;5004877;28;21161;-37
2022/03/30 09:00:20;;;;;;;103.50;59.30;;;;;;;;;;5005620;28;20984;-37
2022/03/30 09:03:00;;;;;;;82.57;47.33;;;;;;;;;;5001930;28;20188;-37
2022/03/30 09:05:27;;;;;;;83.27;48.73;;;;;;;;;;5007086;28;20702;-37
2022/03/30 09:08:14;;;;;;;77.33;43.90;;;;;;;;;;5007009;28;20599;-37
2022/03/30 09:10:42;;;;;;;85.43;44.30;;;;;;;;;;5004284;28;20206;-37
2022/03/30 09:13:09;;;;;;;86.70;48.70;;;;;;;;;;5007497;28;20735;-37
2022/03/30 09:15:36;;;;;;;84.97;48.60;;;;;;;;;;5009653;28;20168;-37
2022/03/30 09:18:06;;;;;;;85.57;47.27;;;;;;;;;;5007269;28;20444;-37
2022/03/30 09:20:33;;;;;;;87.10;49.03;;;;;;;;;;5006320;28;20866;-37
2022/03/30 09:23:00;;;;;;;73.40;43.13;;;;;;;;;;5005303;28;20315;-37
2022/03/30 09:25:27;;;;;;;67.37;41.53;;;;;;;;;;5006901;28;20273;-37
2022/03/30 09:27:54;;;;;;;79.03;45.63;;;;;;;;;;5006575;28;20686;-37
2022/03/30 09:30:21;;;;;;;78.23;43.80;;;;;;;;;;5006035;28;20682;-37
2022/03/30 09:32:49;;;;;;;79.67;44.13;;;;;;;;;;5004740;28;20511;-37
2022/03/30 09:35:28;;;;;;;79.57;43.83;;;;;;;;;;5004739;28;20906;-37
2022/03/30 09:38:00;;;;;;;73.13;41.83;;;;;;;;;;5008411;28;20163;-37
2022/03/30 09:40:36;;;;;;;81.57;45.47;;;;;;;;;;5008526;28;20180;-37
2022/03/30 09:43:11;;;;;;;84.83;46.03;;;;;;;;;;5004415;28;20171;-37
2022/03/30 09:45:37;;;;;;;81.53;44.67;;;;;;;;;;5005180;28;20310;-37
2022/03/30 09:48:10;;;;;;;72.30;42.93;;;;;;;;;;5010246;28;20187;-37
2022/03/30 09:50:41;;;;;;;74.17;42.80;;;;;;;;;;5006980;28;21106;-37
2022/03/30 09:53:14;;;;;;;64.60;39.60;;;;;;;;;;5005989;28;20694;-37
2022/03/30 09:55:53;;;;;;;68.73;41.17;;;;;;;;;;5003276;28;20497;-37
2022/03/30 09:58:21;;;;;;;75.77;42.70;;;;;;;;;;5006214;28;20363;-37
2022/03/30 10:01:08;;;;;;;71.93;40.33;;;;;;;;;;5007643;28;20518;-37
2022/03/30 10:03:37;;;;;;;68.80;41.83;;;;;;;;;;5004886;28;20415;-37
2022/03/30 10:06:04;;;;;;;64.47;38.60;;;;;;;;;;5004292;28;20226;-37
2022/03/30 10:08:30;;;;;;;56.87;37.73;;;;;;;;;;5009578;28;20594;-37
2022/03/30 10:10:57;;;;;;;67.20;41.63;;;;;;;;;;5006002;28;20199;-37
2022/03/30 10:13:24;;;;;;;64.83;41.53;;;;;;;;;;5005188;28;20168;-37
2022/03/30 10:15:51;;;;;;;70.13;44.33;;;;;;;;;;5005739;28;20172;-37
2022/03/30 10:18:19;;;;;;;73.87;42.90;;;;;;;;;;5004896;28;20226;-37
2022/03/30 10:20:45;;;;;;;65.60;40.03;;;;;;;;;;5007972;28;20172;-37
2022/03/30 10:23:28;;;;;;;67.43;41.97;;;;;;;;;;4999232;28;20306;-37
2022/03/30 10:25:54;;;;;;;68.53;42.60;;;;;;;;;;5004622;28;21063;-37
2022/03/30 10:28:25;;;;;;;71.13;44.13;;;;;;;;;;4984787;28;20176;-37
2022/03/30 10:30:53;;;;;;;72.00;42.47;;;;;;;;;;5000961;28;20204;-37
2022/03/30 10:33:30;;;;;;;69.93;42.50;;;;;;;;;;5005044;28;20300;-37
2022/03/30 10:35:58;;;;;;;76.60;45.07;;;;;;;;;;5005111;28;20168;-37
2022/03/30 10:38:24;;;;;;;71.77;45.57;;;;;;;;;;5002091;28;20601;-37
2022/03/30 10:41:05;;;;;;;75.70;44.93;;;;;;;;;;5006420;28;20245;-37
2022/03/30 10:43:32;;;;;;;76.30;45.57;;;;;;;;;;5004490;28;20612;-37
2022/03/30 10:46:03;;;;;;;75.97;46.13;;;;;;;;;;5001979;28;20207;-38
2022/03/30 10:48:30;;;;;;;82.67;49.33;;;;;;;;;;4999700;28;20200;-37
2022/03/30 10:50:56;;;;;;;78.07;46.60;;;;;;;;;;5008289;28;20199;-37
2022/03/30 10:53:34;;;;;;;74.20;44.77;;;;;;;;;;5010466;28;20415;-37
2022/03/30 10:56:09;;;;;;;78.63;48.90;;;;;;;;;;5008391;28;20207;-37
2022/03/30 10:58:52;;;;;;;75.20;45.67;;;;;;;;;;4983989;28;20179;-37
2022/03/30 11:01:28;;;;;;;72.10;46.03;;;;;;;;;;5009300;28;20191;-37
2022/03/30 11:04:22;;;;;;;68.63;44.00;;;;;;;;;;5005624;28;20513;-37
2022/03/30 11:07:08;;;;;;;74.13;44.93;;;;;;;;;;5003755;28;20609;-37
2022/03/30 11:09:35;;;;;;;79.70;48.53;;;;;;;;;;4991455;28;20903;-37
2022/03/30 11:12:14;;;;;;;80.93;47.93;;;;;;;;;;5009434;28;20406;-37
2022/03/30 11:14:46;;;;;;;77.43;47.03;;;;;;;;;;5008395;28;20696;-37
2022/03/30 11:17:14;;;;;;;76.83;47.40;;;;;;;;;;5006201;28;20222;-38
2022/03/30 11:19:56;;;;;;;77.63;48.80;;;;;;;;;;5011648;28;20253;-37
2022/03/30 11:22:22;;;;;;;86.00;51.70;;;;;;;;;;5011227;28;20446;-37
2022/03/30 11:25:07;;;;;;;79.10;47.33;;;;;;;;;;5006412;28;20291;-37
2022/03/30 11:27:34;;;;;;;81.03;48.97;;;;;;;;;;5008191;28;20513;-37
2022/03/30 11:30:01;;;;;;;81.37;50.30;;;;;;;;;;5010287;28;20286;-37
2022/03/30 11:32:34;;;;;;;77.60;49.37;;;;;;;;;;5009918;28;20464;-37
2022/03/30 11:35:11;;;;;;;79.07;48.80;;;;;;;;;;5008634;28;20245;-37
2022/03/30 11:37:39;;;;;;;77.83;46.07;;;;;;;;;;5007431;28;20612;-37
2022/03/30 11:40:08;;;;;;;71.10;43.60;;;;;;;;;;5010173;28;20209;-37
2022/03/30 11:42:36;;;;;;;73.40;45.13;;;;;;;;;;5010956;28;20510;-37
2022/03/30 11:45:21;;;;;;;72.27;44.33;;;;;;;;;;5006149;28;20253;-37
2022/03/30 11:47:55;;;;;;;76.27;44.60;;;;;;;;;;5010035;28;20280;-37
2022/03/30 11:50:33;;;;;;;74.47;44.23;;;;;;;;;;5006170;28;20192;-37
2022/03/30 11:53:09;;;;;;;78.77;43.17;;;;;;;;;;5004523;28;20704;-37
2022/03/30 11:55:55;;;;;;;77.00;45.33;;;;;;;;;;5007624;28;20824;-37
2022/03/30 11:58:31;;;;;;;73.63;44.43;;;;;;;;;;5007900;28;20176;-37
2022/03/30 12:00:59;;;;;;;72.57;43.87;;;;;;;;;;5004942;28;20286;-37
2022/03/30 12:03:26;;;;;;;73.20;43.80;;;;;;;;;;5004139;28;20183;-37
2022/03/30 12:05:56;;;;;;;77.93;43.57;;;;;;;;;;5008245;28;20172;-38
2022/03/30 12:08:22;;;;;;;72.43;44.73;;;;;;;;;;5009127;28;20180;-37
2022/03/30 12:10:50;;;;;;;77.10;44.83;;;;;;;;;;5006615;28;20307;-37
2022/03/30 12:13:23;;;;;;;75.33;45.43;;;;;;;;;;5005408;28;20504;-38
2022/03/30 12:15:59;;;;;;;72.07;43.23;;;;;;;;;;5007524;28;20515;-38
2022/03/30 12:18:25;;;;;;;76.77;41.60;;;;;;;;;;5010180;28;20548;-37
2022/03/30 12:20:51;;;;;;;73.60;43.00;;;;;;;;;;5006627;28;20179;-38
2022/03/30 12:23:17;;;;;;;72.50;42.17;;;;;;;;;;5004243;28;20930;-37
2022/03/30 12:25:44;;;;;;;71.00;42.77;;;;;;;;;;5008757;28;20588;-37
2022/03/30 12:28:10;;;;;;;83.40;44.73;;;;;;;;;;5011224;28;20474;-37
2022/03/30 12:30:38;;;;;;;72.70;43.73;;;;;;;;;;5008184;28;20561;-37
2022/03/30 12:33:04;;;;;;;77.60;44.77;;;;;;;;;;4981752;28;20211;-37
2022/03/30 12:35:35;;;;;;;75.93;44.57;;;;;;;;;;5010049;28;20276;-37
2022/03/30 12:38:09;;;;;;;71.57;43.03;;;;;;;;;;5008404;28;20254;-37
2022/03/30 12:40:36;;;;;;;75.50;41.40;;;;;;;;;;5007832;28;20913;-38
2022/03/30 12:43:03;;;;;;;79.60;44.43;;;;;;;;;;5004206;28;20226;-37
2022/03/30 12:45:29;;;;;;;68.83;42.57;;;;;;;;;;5006314;28;21084;-37
2022/03/30 12:47:58;;;;;;;76.73;43.23;;;;;;;;;;5009148;28;20418;-37
2022/03/30 12:50:29;;;;;;;78.97;42.07;;;;;;;;;;5006396;28;20277;-37
2022/03/30 12:53:02;;;;;;;81.37;45.83;;;;;;;;;;5006114;28;20928;-37
2022/03/30 12:55:34;;;;;;;73.50;43.43;;;;;;;;;;5005388;28;20330;-36
2022/03/30 12:58:00;;;;;;;71.53;41.93;;;;;;;;;;5006647;28;20731;-36
2022/03/30 13:00:28;;;;;;;73.83;43.03;;;;;;;;;;5007472;28;20179;-37
2022/03/30 13:03:13;;;;;;;67.73;41.13;;;;;;;;;;5005722;28;20825;-37
2022/03/30 13:05:41;;;;;;;64.27;40.40;;;;;;;;;;5000321;28;20650;-36
2022/03/30 13:08:25;;;;;;;70.80;41.93;;;;;;;;;;5003891;28;20634;-37
2022/03/30 13:10:55;;;;;;;66.47;39.03;;;;;;;;;;5004431;28;20183;-37
2022/03/30 13:13:25;;;;;;;70.17;39.10;;;;;;;;;;5005175;28;20733;-37
2022/03/30 13:15:52;;;;;;;66.57;40.90;;;;;;;;;;5004380;28;20236;-37
2022/03/30 13:18:20;;;;;;;65.37;40.37;;;;;;;;;;5007649;28;20639;-37
2022/03/30 13:20:57;;;;;;;70.93;41.90;;;;;;;;;;5005427;28;20222;-37
2022/03/30 13:23:33;;;;;;;68.17;41.30;;;;;;;;;;5003894;28;20203;-37
2022/03/30 13:26:00;;;;;;;66.13;41.07;;;;;;;;;;5005266;28;20421;-37
2022/03/30 13:28:27;;;;;;;61.70;37.60;;;;;;;;;;5006229;28;20439;-37
2022/03/30 13:30:53;;;;;;;68.23;39.77;;;;;;;;;;5005788;28;20200;-37
2022/03/30 13:33:19;;;;;;;63.20;38.60;;;;;;;;;;5001878;28;20362;-37
2022/03/30 13:35:52;;;;;;;67.43;39.73;;;;;;;;;;5003380;28;20172;-37
2022/03/30 13:38:19;;;;;;;57.07;36.00;;;;;;;;;;5006665;28;20850;-37
2022/03/30 13:40:46;;;;;;;58.30;34.37;;;;;;;;;;4989814;28;20935;-37
2022/03/30 13:43:12;;;;;;;53.60;33.53;;;;;;;;;;5003521;28;20257;-37
2022/03/30 13:45:38;;;;;;;51.33;33.23;;;;;;;;;;5003210;28;20712;-37
2022/03/30 13:48:05;;;;;;;51.33;29.93;;;;;;;;;;5003654;28;20467;-37
2022/03/30 13:50:31;;;;;;;43.73;28.87;;;;;;;;;;5005773;28;20191;-37
2022/03/30 13:53:02;;;;;;;48.93;28.83;;;;;;;;;;5006434;28;20585;-37
2022/03/30 13:55:28;;;;;;;50.57;27.10;;;;;;;;;;5006365;28;20212;-37
2022/03/30 13:57:56;;;;;;;45.07;26.80;;;;;;;;;;5006426;28;20785;-37
2022/03/30 14:00:22;;;;;;;47.23;26.47;;;;;;;;;;5006285;28;20184;-37
2022/03/30 14:02:48;;;;;;;40.47;25.63;;;;;;;;;;5005830;28;20942;-37
2022/03/30 14:05:14;;;;;;;39.13;25.23;;;;;;;;;;5002897;28;21044;-37
2022/03/30 14:07:40;;;;;;;38.60;23.73;;;;;;;;;;5003016;28;20191;-37
2022/03/30 14:10:06;;;;;;;40.63;23.67;;;;;;;;;;5003553;28;20202;-37
2022/03/30 14:12:33;;;;;;;35.80;22.83;;;;;;;;;;5000512;28;20710;-37
2022/03/30 14:14:59;;;;;;;44.90;23.53;;;;;;;;;;5003317;28;20184;-37
2022/03/30 14:17:25;;;;;;;39.57;22.57;;;;;;;;;;5005671;28;20704;-37
2022/03/30 14:19:52;;;;;;;38.03;21.13;;;;;;;;;;5002257;28;20312;-37
2022/03/30 14:22:19;;;;;;;36.53;21.07;;;;;;;;;;5003413;28;20764;-37
2022/03/30 14:24:45;;;;;;;34.60;21.33;;;;;;;;;;5004837;28;21271;-37
2022/03/30 14:27:11;;;;;;;43.17;22.80;;;;;;;;;;5010934;28;20482;-37
2022/03/30 14:29:38;;;;;;;38.63;22.43;;;;;;;;;;5008865;28;20443;-37
2022/03/30 14:32:04;;;;;;;36.00;22.17;;;;;;;;;;5007166;28;20387;-36